sensor_id;sensor_type;location;lat;lon;timestamp;pressure;altitude;pressure_sealevel;temperature;humidity
24620;BME280;12763;55.802;37.404;2022-08-21T00:01:11;100344.31;;;23.67;36.37
24620;BME280;12763;55.802;37.404;2022-08-21T00:03:38;100335.78;;;24.02;36.07
24620;BME280;12763;55.802;37.404;2022-08-21T00:06:05;100340.75;;;24.25;35.64
24620;BME280;12763;55.802;37.404;2022-08-21T00:08:35;100337.53;;;23.83;35.74
24620;BME280;12763;55.802;37.404;2022-08-21T00:11:02;100340.41;;;23.32;36.30
24620;BME280;12763;55.802;37.404;2022-08-21T00:13:28;100340.72;;;23.36;36.56
24620;BME280;12763;55.802;37.404;2022-08-21T00:15:54;100341.53;;;23.31;36.78
24620;BME280;12763;55.802;37.404;2022-08-21T00:18:21;100332.56;;;22.94;36.76
24620;BME280;12763;55.802;37.404;2022-08-21T00:20:47;100343.94;;;22.37;37.38
24620;BME280;12763;55.802;37.404;2022-08-21T00:23:14;100343.03;;;22.11;37.89
24620;BME280;12763;55.802;37.404;2022-08-21T00:25:42;100335.69;;;22.10;38.06
24620;BME280;12763;55.802;37.404;2022-08-21T00:28:11;100340.16;;;22.01;38.41
24620;BME280;12763;55.802;37.404;2022-08-21T00:30:39;100335.03;;;22.70;37.30
24620;BME280;12763;55.802;37.404;2022-08-21T00:33:06;100331.28;;;22.35;37.95
24620;BME280;12763;55.802;37.404;2022-08-21T00:35:35;100338.84;;;22.19;38.16
24620;BME280;12763;55.802;37.404;2022-08-21T00:38:04;100339.88;;;23.00;37.56
24620;BME280;12763;55.802;37.404;2022-08-21T00:40:44;100330.88;;;23.13;36.93
24620;BME280;12763;55.802;37.404;2022-08-21T00:43:12;100335.91;;;23.01;37.56
24620;BME280;12763;55.802;37.404;2022-08-21T00:45:39;100331.69;;;23.29;37.26
24620;BME280;12763;55.802;37.404;2022-08-21T00:48:05;100321.84;;;23.21;36.53
24620;BME280;12763;55.802;37.404;2022-08-21T00:50:33;100326.63;;;22.91;37.01
24620;BME280;12763;55.802;37.404;2022-08-21T00:53:01;100321.00;;;22.80;37.20
24620;BME280;12763;55.802;37.404;2022-08-21T00:55:29;100311.63;;;23.71;36.57
24620;BME280;12763;55.802;37.404;2022-08-21T00:57:59;100318.31;;;23.95;36.27
24620;BME280;12763;55.802;37.404;2022-08-21T01:00:32;100330.38;;;24.06;37.02
24620;BME280;12763;55.802;37.404;2022-08-21T01:03:01;100321.34;;;24.09;35.96
24620;BME280;12763;55.802;37.404;2022-08-21T01:05:32;100340.31;;;23.93;36.09
24620;BME280;12763;55.802;37.404;2022-08-21T01:10:27;100336.97;;;23.76;36.65
24620;BME280;12763;55.802;37.404;2022-08-21T01:12:57;100336.47;;;23.28;36.94
24620;BME280;12763;55.802;37.404;2022-08-21T01:15:27;100340.97;;;23.29;37.77
24620;BME280;12763;55.802;37.404;2022-08-21T01:17:56;100343.75;;;23.70;37.51
24620;BME280;12763;55.802;37.404;2022-08-21T01:20:22;100345.47;;;23.51;37.20
24620;BME280;12763;55.802;37.404;2022-08-21T01:22:48;100340.09;;;23.64;36.65
24620;BME280;12763;55.802;37.404;2022-08-21T01:25:18;100340.84;;;24.10;36.42
24620;BME280;12763;55.802;37.404;2022-08-21T01:27:48;100329.16;;;23.58;36.20
24620;BME280;12763;55.802;37.404;2022-08-21T01:30:21;100335.34;;;23.60;36.42
24620;BME280;12763;55.802;37.404;2022-08-21T01:32:48;100335.78;;;24.02;36.12
24620;BME280;12763;55.802;37.404;2022-08-21T01:35:16;100335.44;;;24.09;36.51
24620;BME280;12763;55.802;37.404;2022-08-21T01:37:47;100337.03;;;23.56;36.73
24620;BME280;12763;55.802;37.404;2022-08-21T01:40:17;100327.88;;;24.04;36.73
24620;BME280;12763;55.802;37.404;2022-08-21T01:42:44;100329.09;;;24.42;36.33
24620;BME280;12763;55.802;37.404;2022-08-21T01:45:12;100331.81;;;23.98;37.01
24620;BME280;12763;55.802;37.404;2022-08-21T01:47:38;100325.06;;;23.99;36.54
24620;BME280;12763;55.802;37.404;2022-08-21T01:50:08;100325.41;;;24.51;36.49
24620;BME280;12763;55.802;37.404;2022-08-21T01:52:36;100336.56;;;24.67;35.98
24620;BME280;12763;55.802;37.404;2022-08-21T01:55:07;100330.69;;;24.63;35.80
24620;BME280;12763;55.802;37.404;2022-08-21T01:57:34;100321.72;;;24.51;36.17
24620;BME280;12763;55.802;37.404;2022-08-21T02:00:00;100327.69;;;24.44;35.37
24620;BME280;12763;55.802;37.404;2022-08-21T02:02:29;100329.72;;;24.34;35.57
24620;BME280;12763;55.802;37.404;2022-08-21T02:04:55;100330.59;;;24.29;35.89
24620;BME280;12763;55.802;37.404;2022-08-21T02:07:22;100329.66;;;24.49;36.16
24620;BME280;12763;55.802;37.404;2022-08-21T02:09:48;100329.91;;;24.47;35.30
24620;BME280;12763;55.802;37.404;2022-08-21T02:12:15;100330.72;;;24.53;35.72
24620;BME280;12763;55.802;37.404;2022-08-21T02:15:02;100335.78;;;24.02;36.49
24620;BME280;12763;55.802;37.404;2022-08-21T02:20:09;100335.88;;;24.46;35.13
24620;BME280;12763;55.802;37.404;2022-08-21T02:22:36;100345.19;;;24.46;36.15
24620;BME280;12763;55.802;37.404;2022-08-21T02:25:04;100344.25;;;24.56;35.07
24620;BME280;12763;55.802;37.404;2022-08-21T02:27:40;100342.50;;;24.06;36.72
24620;BME280;12763;55.802;37.404;2022-08-21T02:30:07;100340.28;;;23.98;36.21
24620;BME280;12763;55.802;37.404;2022-08-21T02:32:33;100342.59;;;23.86;36.67
24620;BME280;12763;55.802;37.404;2022-08-21T02:34:59;100333.19;;;24.21;36.37
24620;BME280;12763;55.802;37.404;2022-08-21T02:37:25;100335.69;;;24.27;36.01
24620;BME280;12763;55.802;37.404;2022-08-21T02:39:54;100333.50;;;24.63;35.85
24620;BME280;12763;55.802;37.404;2022-08-21T02:42:20;100338.13;;;24.93;35.54
24620;BME280;12763;55.802;37.404;2022-08-21T02:44:47;100343.47;;;24.94;34.89
24620;BME280;12763;55.802;37.404;2022-08-21T02:47:14;100344.31;;;24.95;35.45
24620;BME280;12763;55.802;37.404;2022-08-21T02:49:42;100341.47;;;24.95;34.89
24620;BME280;12763;55.802;37.404;2022-08-21T02:52:09;100340.94;;;24.93;35.15
24620;BME280;12763;55.802;37.404;2022-08-21T02:54:35;100348.69;;;25.11;35.29
24620;BME280;12763;55.802;37.404;2022-08-21T02:57:01;100348.19;;;25.04;35.24
24620;BME280;12763;55.802;37.404;2022-08-21T02:59:27;100338.75;;;24.85;35.30
24620;BME280;12763;55.802;37.404;2022-08-21T03:01:54;100339.56;;;24.36;36.28
24620;BME280;12763;55.802;37.404;2022-08-21T03:04:21;100345.41;;;24.55;35.59
24620;BME280;12763;55.802;37.404;2022-08-21T03:06:48;100349.91;;;25.00;34.77
24620;BME280;12763;55.802;37.404;2022-08-21T03:09:18;100347.09;;;25.00;34.78
24620;BME280;12763;55.802;37.404;2022-08-21T03:11:44;100347.25;;;24.75;35.13
24620;BME280;12763;55.802;37.404;2022-08-21T03:14:13;100348.88;;;24.91;35.32
24620;BME280;12763;55.802;37.404;2022-08-21T03:16:39;100355.91;;;24.88;35.05
24620;BME280;12763;55.802;37.404;2022-08-21T03:19:06;100354.81;;;24.30;35.74
24620;BME280;12763;55.802;37.404;2022-08-21T03:21:32;100358.06;;;24.63;35.40
24620;BME280;12763;55.802;37.404;2022-08-21T03:23:59;100354.97;;;24.59;34.72
24620;BME280;12763;55.802;37.404;2022-08-21T03:26:27;100363.00;;;24.91;34.63
24620;BME280;12763;55.802;37.404;2022-08-21T03:28:54;100361.84;;;24.92;34.50
24620;BME280;12763;55.802;37.404;2022-08-21T03:31:21;100367.28;;;25.17;34.69
24620;BME280;12763;55.802;37.404;2022-08-21T03:33:47;100372.69;;;25.47;34.51
24620;BME280;12763;55.802;37.404;2022-08-21T03:36:13;100367.41;;;25.02;34.87
24620;BME280;12763;55.802;37.404;2022-08-21T03:38:41;100362.22;;;25.14;34.61
24620;BME280;12763;55.802;37.404;2022-08-21T03:41:08;100371.63;;;25.38;34.16
24620;BME280;12763;55.802;37.404;2022-08-21T03:43:37;100374.75;;;25.37;34.35
24620;BME280;12763;55.802;37.404;2022-08-21T03:46:05;100365.16;;;25.66;33.83
24620;BME280;12763;55.802;37.404;2022-08-21T03:48:32;100370.16;;;25.75;33.92
24620;BME280;12763;55.802;37.404;2022-08-21T03:51:02;100371.91;;;25.71;33.75
24620;BME280;12763;55.802;37.404;2022-08-21T03:53:34;100364.50;;;25.46;34.44
24620;BME280;12763;55.802;37.404;2022-08-21T03:56:02;100368.84;;;24.50;35.11
24620;BME280;12763;55.802;37.404;2022-08-21T03:58:29;100372.22;;;23.73;36.06
24620;BME280;12763;55.802;37.404;2022-08-21T04:00:58;100364.34;;;23.60;36.11
24620;BME280;12763;55.802;37.404;2022-08-21T04:03:26;100361.06;;;24.27;35.72
24620;BME280;12763;55.802;37.404;2022-08-21T04:05:52;100352.00;;;24.30;35.29
24620;BME280;12763;55.802;37.404;2022-08-21T04:08:18;100355.19;;;24.09;35.53
24620;BME280;12763;55.802;37.404;2022-08-21T04:10:50;100355.94;;;24.34;35.95
24620;BME280;12763;55.802;37.404;2022-08-21T04:13:18;100352.91;;;24.21;35.54
24620;BME280;12763;55.802;37.404;2022-08-21T04:15:44;100353.72;;;24.80;34.68
24620;BME280;12763;55.802;37.404;2022-08-21T04:18:13;100349.72;;;24.86;34.91
24620;BME280;12763;55.802;37.404;2022-08-21T04:20:42;100350.25;;;24.93;34.82
24620;BME280;12763;55.802;37.404;2022-08-21T04:23:09;100361.25;;;25.29;34.27
24620;BME280;12763;55.802;37.404;2022-08-21T04:25:35;100348.66;;;24.72;34.60
24620;BME280;12763;55.802;37.404;2022-08-21T04:28:02;100358.47;;;24.90;34.42
24620;BME280;12763;55.802;37.404;2022-08-21T04:30:32;100354.94;;;24.10;35.03
24620;BME280;12763;55.802;37.404;2022-08-21T04:32:58;100352.22;;;23.75;35.75
24620;BME280;12763;55.802;37.404;2022-08-21T04:35:26;100349.66;;;23.78;35.41
24620;BME280;12763;55.802;37.404;2022-08-21T04:37:53;100349.97;;;23.72;35.52
24620;BME280;12763;55.802;37.404;2022-08-21T04:40:21;100347.03;;;24.07;35.38
24620;BME280;12763;55.802;37.404;2022-08-21T04:42:50;100356.91;;;24.64;34.50
24620;BME280;12763;55.802;37.404;2022-08-21T04:45:22;100358.25;;;24.76;34.28
24620;BME280;12763;55.802;37.404;2022-08-21T04:47:51;100367.94;;;23.91;35.22
24620;BME280;12763;55.802;37.404;2022-08-21T04:50:19;100365.47;;;23.59;35.46
24620;BME280;12763;55.802;37.404;2022-08-21T04:53:05;100363.44;;;23.85;35.30
24620;BME280;12763;55.802;37.404;2022-08-21T04:55:33;100357.59;;;23.66;35.46
24620;BME280;12763;55.802;37.404;2022-08-21T04:58:00;100355.31;;;23.73;36.11
24620;BME280;12763;55.802;37.404;2022-08-21T05:00:29;100362.34;;;23.71;36.19
24620;BME280;12763;55.802;37.404;2022-08-21T05:02:57;100358.00;;;24.19;35.31
24620;BME280;12763;55.802;37.404;2022-08-21T05:05:24;100359.31;;;24.36;35.38
24620;BME280;12763;55.802;37.404;2022-08-21T05:07:52;100364.31;;;24.54;35.50
24620;BME280;12763;55.802;37.404;2022-08-21T05:10:19;100353.28;;;23.84;35.83
24620;BME280;12763;55.802;37.404;2022-08-21T05:12:46;100348.22;;;23.81;35.25
24620;BME280;12763;55.802;37.404;2022-08-21T05:15:12;100351.66;;;23.68;36.21
24620;BME280;12763;55.802;37.404;2022-08-21T05:17:40;100349.63;;;23.88;35.97
24620;BME280;12763;55.802;37.404;2022-08-21T05:20:11;100348.72;;;24.03;35.27
24620;BME280;12763;55.802;37.404;2022-08-21T05:22:41;100342.53;;;24.01;34.70
24620;BME280;12763;55.802;37.404;2022-08-21T05:25:10;100350.59;;;24.38;34.98
24620;BME280;12763;55.802;37.404;2022-08-21T05:27:37;100351.28;;;24.59;34.64
24620;BME280;12763;55.802;37.404;2022-08-21T05:30:06;100352.19;;;23.80;35.11
24620;BME280;12763;55.802;37.404;2022-08-21T05:32:33;100356.91;;;23.94;34.80
24620;BME280;12763;55.802;37.404;2022-08-21T05:35:01;100350.56;;;23.54;35.09
24620;BME280;12763;55.802;37.404;2022-08-21T05:37:29;100347.47;;;23.55;35.51
24620;BME280;12763;55.802;37.404;2022-08-21T05:39:55;100349.03;;;24.02;35.04
24620;BME280;12763;55.802;37.404;2022-08-21T05:42:21;100355.88;;;24.44;34.17
24620;BME280;12763;55.802;37.404;2022-08-21T05:44:47;100348.47;;;24.59;33.84
24620;BME280;12763;55.802;37.404;2022-08-21T05:47:14;100347.31;;;24.16;34.35
24620;BME280;12763;55.802;37.404;2022-08-21T05:49:40;100348.84;;;23.68;34.79
24620;BME280;12763;55.802;37.404;2022-08-21T05:52:07;100348.06;;;24.31;33.96
24620;BME280;12763;55.802;37.404;2022-08-21T05:54:37;100354.28;;;24.28;34.15
24620;BME280;12763;55.802;37.404;2022-08-21T05:57:03;100348.81;;;23.83;34.44
24620;BME280;12763;55.802;37.404;2022-08-21T05:59:30;100355.53;;;23.87;34.76
24620;BME280;12763;55.802;37.404;2022-08-21T06:01:59;100349.88;;;24.02;34.39
24620;BME280;12763;55.802;37.404;2022-08-21T06:04:25;100352.38;;;24.19;34.60
24620;BME280;12763;55.802;37.404;2022-08-21T06:06:52;100350.06;;;24.75;34.37
24620;BME280;12763;55.802;37.404;2022-08-21T06:09:21;100352.34;;;25.74;32.73
24620;BME280;12763;55.802;37.404;2022-08-21T06:11:47;100348.00;;;25.58;32.48
24620;BME280;12763;55.802;37.404;2022-08-21T06:14:14;100348.34;;;24.84;33.82
24620;BME280;12763;55.802;37.404;2022-08-21T06:16:40;100345.03;;;24.67;33.76
24620;BME280;12763;55.802;37.404;2022-08-21T06:19:06;100337.09;;;24.25;32.88
24620;BME280;12763;55.802;37.404;2022-08-21T06:21:32;100343.13;;;24.57;33.04
24620;BME280;12763;55.802;37.404;2022-08-21T06:23:59;100339.59;;;24.85;32.37
24620;BME280;12763;55.802;37.404;2022-08-21T06:26:25;100337.69;;;25.43;32.24
24620;BME280;12763;55.802;37.404;2022-08-21T06:28:52;100336.75;;;25.82;31.92
24620;BME280;12763;55.802;37.404;2022-08-21T06:31:24;100337.06;;;25.51;31.47
24620;BME280;12763;55.802;37.404;2022-08-21T06:33:51;100336.56;;;25.10;32.24
24620;BME280;12763;55.802;37.404;2022-08-21T06:36:18;100336.50;;;24.82;32.47
24620;BME280;12763;55.802;37.404;2022-08-21T06:38:44;100325.84;;;24.69;32.65
24620;BME280;12763;55.802;37.404;2022-08-21T06:41:11;100330.31;;;24.80;32.09
24620;BME280;12763;55.802;37.404;2022-08-21T06:43:37;100338.84;;;24.65;31.88
24620;BME280;12763;55.802;37.404;2022-08-21T06:46:07;100337.09;;;24.74;32.18
24620;BME280;12763;55.802;37.404;2022-08-21T06:48:33;100328.75;;;24.97;32.16
24620;BME280;12763;55.802;37.404;2022-08-21T06:51:00;100327.97;;;24.92;31.85
24620;BME280;12763;55.802;37.404;2022-08-21T06:53:26;100329.22;;;25.43;31.28
24620;BME280;12763;55.802;37.404;2022-08-21T06:55:53;100335.44;;;25.40;31.15
24620;BME280;12763;55.802;37.404;2022-08-21T06:58:21;100337.56;;;25.25;31.26
24620;BME280;12763;55.802;37.404;2022-08-21T07:00:50;100327.97;;;24.92;30.73
24620;BME280;12763;55.802;37.404;2022-08-21T07:03:24;100326.25;;;24.96;31.02
24620;BME280;12763;55.802;37.404;2022-08-21T07:05:51;100328.38;;;25.09;30.81
24620;BME280;12763;55.802;37.404;2022-08-21T07:08:17;100327.69;;;24.93;31.33
24620;BME280;12763;55.802;37.404;2022-08-21T07:10:47;100330.72;;;24.97;31.03
24620;BME280;12763;55.802;37.404;2022-08-21T07:13:14;100329.41;;;25.23;30.74
24620;BME280;12763;55.802;37.404;2022-08-21T07:15:41;100319.81;;;25.53;30.44
24620;BME280;12763;55.802;37.404;2022-08-21T07:18:07;100317.19;;;25.61;30.54
24620;BME280;12763;55.802;37.404;2022-08-21T07:20:34;100316.69;;;25.78;30.30
24620;BME280;12763;55.802;37.404;2022-08-21T07:23:03;100314.72;;;25.79;30.29
24620;BME280;12763;55.802;37.404;2022-08-21T07:25:30;100315.31;;;25.76;30.58
24620;BME280;12763;55.802;37.404;2022-08-21T07:27:56;100320.13;;;25.99;29.85
24620;BME280;12763;55.802;37.404;2022-08-21T07:30:23;100311.69;;;25.94;30.24
24620;BME280;12763;55.802;37.404;2022-08-21T07:32:49;100316.88;;;26.34;30.12
24620;BME280;12763;55.802;37.404;2022-08-21T07:35:17;100309.31;;;26.48;29.65
24620;BME280;12763;55.802;37.404;2022-08-21T07:37:44;100316.03;;;26.52;30.01
24620;BME280;12763;55.802;37.404;2022-08-21T07:40:11;100312.69;;;26.69;29.81
24620;BME280;12763;55.802;37.404;2022-08-21T07:42:42;100314.00;;;26.95;29.48
24620;BME280;12763;55.802;37.404;2022-08-21T07:45:09;100311.94;;;26.82;29.40
24620;BME280;12763;55.802;37.404;2022-08-21T07:47:40;100314.47;;;26.83;30.12
24620;BME280;12763;55.802;37.404;2022-08-21T07:50:10;100317.97;;;26.75;29.25
24620;BME280;12763;55.802;37.404;2022-08-21T07:52:36;100314.56;;;26.73;29.35
24620;BME280;12763;55.802;37.404;2022-08-21T07:55:03;100307.13;;;27.15;28.42
24620;BME280;12763;55.802;37.404;2022-08-21T07:57:30;100304.13;;;27.25;28.45
24620;BME280;12763;55.802;37.404;2022-08-21T07:59:59;100311.81;;;26.68;28.21
24620;BME280;12763;55.802;37.404;2022-08-21T08:02:28;100305.56;;;26.71;28.03
24620;BME280;12763;55.802;37.404;2022-08-21T08:05:02;100293.31;;;26.57;27.16
24620;BME280;12763;55.802;37.404;2022-08-21T08:07:29;100293.47;;;26.47;27.71
24620;BME280;12763;55.802;37.404;2022-08-21T08:09:55;100288.59;;;26.34;27.66
24620;BME280;12763;55.802;37.404;2022-08-21T08:12:24;100294.94;;;26.45;27.58
24620;BME280;12763;55.802;37.404;2022-08-21T08:14:59;100288.13;;;26.64;27.05
24620;BME280;12763;55.802;37.404;2022-08-21T08:17:27;100287.53;;;26.67;26.92
24620;BME280;12763;55.802;37.404;2022-08-21T08:19:53;100277.56;;;26.89;27.16
24620;BME280;12763;55.802;37.404;2022-08-21T08:22:21;100275.31;;;27.04;27.28
24620;BME280;12763;55.802;37.404;2022-08-21T08:24:51;100273.88;;;27.20;27.00
24620;BME280;12763;55.802;37.404;2022-08-21T08:27:17;100275.38;;;27.31;27.19
24620;BME280;12763;55.802;37.404;2022-08-21T08:29:43;100272.41;;;27.55;26.97
24620;BME280;12763;55.802;37.404;2022-08-21T08:32:10;100266.44;;;27.57;26.78
24620;BME280;12763;55.802;37.404;2022-08-21T08:34:38;100267.50;;;27.74;26.71
24620;BME280;12763;55.802;37.404;2022-08-21T08:37:06;100268.22;;;27.66;27.04
24620;BME280;12763;55.802;37.404;2022-08-21T08:39:33;100262.13;;;27.73;26.79
24620;BME280;12763;55.802;37.404;2022-08-21T08:42:12;100264.34;;;27.62;26.45
24620;BME280;12763;55.802;37.404;2022-08-21T08:44:42;100267.00;;;27.40;26.37
24620;BME280;12763;55.802;37.404;2022-08-21T08:47:12;100265.91;;;27.55;26.16
24620;BME280;12763;55.802;37.404;2022-08-21T08:53:00;100262.78;;;27.83;25.98
24620;BME280;12763;55.802;37.404;2022-08-21T08:55:36;100271.28;;;28.24;26.13
24620;BME280;12763;55.802;37.404;2022-08-21T08:58:03;100272.94;;;28.25;25.80
24620;BME280;12763;55.802;37.404;2022-08-21T09:00:30;100265.00;;;28.14;25.16
24620;BME280;12763;55.802;37.404;2022-08-21T09:02:59;100264.44;;;28.12;25.44
24620;BME280;12763;55.802;37.404;2022-08-21T09:05:29;100270.03;;;28.17;24.93
24620;BME280;12763;55.802;37.404;2022-08-21T09:14:09;100267.28;;;28.12;25.06
24620;BME280;12763;55.802;37.404;2022-08-21T09:17:09;100266.97;;;27.99;24.57
24620;BME280;12763;55.802;37.404;2022-08-21T09:20:03;100268.19;;;28.34;24.66
24620;BME280;12763;55.802;37.404;2022-08-21T09:25:20;100267.09;;;28.22;24.38
24620;BME280;12763;55.802;37.404;2022-08-21T09:27:48;100262.34;;;28.53;24.65
24620;BME280;12763;55.802;37.404;2022-08-21T09:30:14;100268.50;;;29.04;24.38
24620;BME280;12763;55.802;37.404;2022-08-21T09:32:41;100264.75;;;28.95;24.61
24620;BME280;12763;55.802;37.404;2022-08-21T09:35:20;100264.88;;;28.68;23.97
24620;BME280;12763;55.802;37.404;2022-08-21T09:37:51;100255.09;;;28.96;24.70
24620;BME280;12763;55.802;37.404;2022-08-21T09:43:22;100262.69;;;28.87;24.00
24620;BME280;12763;55.802;37.404;2022-08-21T09:46:10;100261.72;;;29.36;24.33
24620;BME280;12763;55.802;37.404;2022-08-21T09:48:47;100254.28;;;29.49;24.00
24620;BME280;12763;55.802;37.404;2022-08-21T09:51:20;100255.19;;;30.14;23.50
24620;BME280;12763;55.802;37.404;2022-08-21T09:53:52;100259.88;;;30.02;23.40
24620;BME280;12763;55.802;37.404;2022-08-21T09:56:27;100261.66;;;29.58;24.08
24620;BME280;12763;55.802;37.404;2022-08-21T10:01:51;100257.84;;;28.88;24.06
24620;BME280;12763;55.802;37.404;2022-08-21T10:04:29;100250.97;;;28.80;23.92
24620;BME280;12763;55.802;37.404;2022-08-21T10:07:08;100265.47;;;29.23;23.93
24620;BME280;12763;55.802;37.404;2022-08-21T10:09:35;100258.78;;;28.97;23.84
24620;BME280;12763;55.802;37.404;2022-08-21T10:14:44;100250.13;;;28.80;23.98
24620;BME280;12763;55.802;37.404;2022-08-21T10:20:11;100251.97;;;28.84;23.61
24620;BME280;12763;55.802;37.404;2022-08-21T10:28:56;100243.84;;;28.91;23.70
24620;BME280;12763;55.802;37.404;2022-08-21T10:37:55;100242.09;;;28.82;24.27
24620;BME280;12763;55.802;37.404;2022-08-21T10:40:29;100231.44;;;28.65;24.13
24620;BME280;12763;55.802;37.404;2022-08-21T10:43:08;100226.91;;;28.64;24.10
24620;BME280;12763;55.802;37.404;2022-08-21T10:48:36;100232.75;;;28.45;24.31
24620;BME280;12763;55.802;37.404;2022-08-21T10:51:09;100230.28;;;28.30;24.30
24620;BME280;12763;55.802;37.404;2022-08-21T10:54:10;100206.69;;;28.08;24.48
24620;BME280;12763;55.802;37.404;2022-08-21T10:56:41;100226.72;;;28.25;24.48
24620;BME280;12763;55.802;37.404;2022-08-21T11:02:00;100220.97;;;28.52;24.36
24620;BME280;12763;55.802;37.404;2022-08-21T11:07:29;100216.75;;;28.49;25.56
24620;BME280;12763;55.802;37.404;2022-08-21T11:10:03;100206.84;;;28.61;24.63
24620;BME280;12763;55.802;37.404;2022-08-21T11:12:41;100209.50;;;28.21;24.37
24620;BME280;12763;55.802;37.404;2022-08-21T11:21:09;100214.50;;;28.60;24.13
24620;BME280;12763;55.802;37.404;2022-08-21T11:23:45;100218.34;;;28.42;24.54
24620;BME280;12763;55.802;37.404;2022-08-21T11:26:19;100216.19;;;28.39;24.83
24620;BME280;12763;55.802;37.404;2022-08-21T11:29:02;100215.50;;;28.42;24.94
24620;BME280;12763;55.802;37.404;2022-08-21T11:40:00;100221.44;;;28.32;25.71
24620;BME280;12763;55.802;37.404;2022-08-21T11:42:32;100213.22;;;28.44;24.44
24620;BME280;12763;55.802;37.404;2022-08-21T11:45:26;100211.78;;;28.33;23.68
24620;BME280;12763;55.802;37.404;2022-08-21T11:48:11;100211.78;;;28.33;23.99
24620;BME280;12763;55.802;37.404;2022-08-21T11:50:40;100206.75;;;28.52;24.71
24620;BME280;12763;55.802;37.404;2022-08-21T11:55:56;100208.09;;;28.90;24.36
24620;BME280;12763;55.802;37.404;2022-08-21T12:01:03;100202.53;;;28.63;24.75
24620;BME280;12763;55.802;37.404;2022-08-21T12:03:36;100200.56;;;28.00;24.85
24620;BME280;12763;55.802;37.404;2022-08-21T12:06:10;100212.25;;;27.85;25.21
24620;BME280;12763;55.802;37.404;2022-08-21T12:13:39;100182.84;;;27.68;24.89
24620;BME280;12763;55.802;37.404;2022-08-21T12:16:11;100179.72;;;27.69;24.96
24620;BME280;12763;55.802;37.404;2022-08-21T12:18:38;100195.03;;;27.82;25.01
24620;BME280;12763;55.802;37.404;2022-08-21T12:24:16;100176.97;;;27.91;25.34
24620;BME280;12763;55.802;37.404;2022-08-21T12:26:54;100189.56;;;27.85;25.53
24620;BME280;12763;55.802;37.404;2022-08-21T12:29:36;100179.69;;;27.83;25.36
24620;BME280;12763;55.802;37.404;2022-08-21T12:32:22;100176.75;;;27.88;25.18
24620;BME280;12763;55.802;37.404;2022-08-21T12:34:49;100178.09;;;27.90;25.31
24620;BME280;12763;55.802;37.404;2022-08-21T12:39:52;100182.44;;;27.74;25.14
24620;BME280;12763;55.802;37.404;2022-08-21T12:42:24;100176.91;;;27.56;25.28
24620;BME280;12763;55.802;37.404;2022-08-21T12:45:00;100176.78;;;27.74;25.18
24620;BME280;12763;55.802;37.404;2022-08-21T12:50:37;100188.94;;;27.88;25.27
24620;BME280;12763;55.802;37.404;2022-08-21T12:53:15;100179.06;;;27.86;25.59
24620;BME280;12763;55.802;37.404;2022-08-21T12:55:45;100168.75;;;28.04;25.48
24620;BME280;12763;55.802;37.404;2022-08-21T12:58:19;100163.50;;;28.11;25.27
24620;BME280;12763;55.802;37.404;2022-08-21T13:00:53;100169.13;;;28.24;25.11
24620;BME280;12763;55.802;37.404;2022-08-21T13:03:21;100175.03;;;28.00;25.22
24620;BME280;12763;55.802;37.404;2022-08-21T13:05:48;100182.81;;;28.22;25.00
24620;BME280;12763;55.802;37.404;2022-08-21T13:08:20;100173.22;;;28.54;25.00
24620;BME280;12763;55.802;37.404;2022-08-21T13:10:49;100176.19;;;28.49;25.12
24620;BME280;12763;55.802;37.404;2022-08-21T13:13:24;100177.59;;;28.60;24.97
24620;BME280;12763;55.802;37.404;2022-08-21T13:16:04;100175.88;;;28.73;24.94
24620;BME280;12763;55.802;37.404;2022-08-21T13:18:36;100175.75;;;28.55;24.89
24620;BME280;12763;55.802;37.404;2022-08-21T13:21:14;100164.03;;;28.35;25.61
24620;BME280;12763;55.802;37.404;2022-08-21T13:23:52;100171.69;;;27.98;25.18
24620;BME280;12763;55.802;37.404;2022-08-21T13:26:20;100168.66;;;28.09;25.25
24620;BME280;12763;55.802;37.404;2022-08-21T13:28:51;100168.34;;;27.96;25.48
24620;BME280;12763;55.802;37.404;2022-08-21T13:31:26;100168.63;;;28.22;25.29
24620;BME280;12763;55.802;37.404;2022-08-21T13:33:54;100168.13;;;28.07;25.08
24620;BME280;12763;55.802;37.404;2022-08-21T13:36:29;100170.44;;;28.05;24.87
24620;BME280;12763;55.802;37.404;2022-08-21T13:38:57;100173.50;;;27.94;24.85
24620;BME280;12763;55.802;37.404;2022-08-21T13:41:31;100168.03;;;28.34;24.97
24620;BME280;12763;55.802;37.404;2022-08-21T13:44:05;100161.72;;;28.37;24.84
24620;BME280;12763;55.802;37.404;2022-08-21T13:46:34;100172.69;;;28.52;24.92
24620;BME280;12763;55.802;37.404;2022-08-21T13:49:03;100163.84;;;28.31;25.02
24620;BME280;12763;55.802;37.404;2022-08-21T13:51:31;100167.44;;;28.23;25.16
24620;BME280;12763;55.802;37.404;2022-08-21T13:53:58;100166.41;;;28.19;24.94
24620;BME280;12763;55.802;37.404;2022-08-21T13:56:33;100148.69;;;28.36;25.33
24620;BME280;12763;55.802;37.404;2022-08-21T13:59:07;100168.03;;;28.56;24.78
24620;BME280;12763;55.802;37.404;2022-08-21T14:01:37;100158.56;;;28.38;24.41
24620;BME280;12763;55.802;37.404;2022-08-21T14:04:24;100151.00;;;28.56;24.01
24620;BME280;12763;55.802;37.404;2022-08-21T14:06:51;100144.91;;;28.85;23.50
24620;BME280;12763;55.802;37.404;2022-08-21T14:09:31;100152.88;;;29.05;23.17
24620;BME280;12763;55.802;37.404;2022-08-21T14:12:02;100150.69;;;29.02;23.58
24620;BME280;12763;55.802;37.404;2022-08-21T14:14:38;100137.78;;;29.27;23.48
24620;BME280;12763;55.802;37.404;2022-08-21T14:17:26;100148.88;;;29.14;23.36